PAYA/YAK METAR and TAF weather

Enter ICAO airport designator
Station Type Date Time Source
PAYA METAR 2019/08/22 05:21 UTC NOAA

PAYA 220521Z AUTO 22005KT 6SM HZ SCT019 BKN034 BKN049 16/13 A2982 RMK AO2 T01560128 TSNO


Station Type Date Time Source
PAYA Decoded METAR 2019/08/22 05:21 UTC NOAA

Station name not available
Aug 22, 2019 - 01:21 AM EDT / 2019.08.22 0521 UTC
Wind: from the SW (220 degrees) at 6 MPH (5 KT):0
Visibility: 6 mile(s):0
Sky conditions: mostly cloudy
Weather: haze
Temperature: 60.1 F (15.6 C)
Dew Point: 55.0 F (12.8 C)
Relative Humidity: 83%
Pressure (altimeter): 29.82 in. Hg (1009 hPa)
ob: PAYA 220521Z AUTO 22005KT 6SM HZ SCT019 BKN034 BKN049 16/13 A2982 RMK AO2 T01560128 TSNO
cycle: 5

Station Type Date Time Source
PAYA TAF 2019/08/21 18:46 UTC NOAA

TAF PAYA 211744Z 2118/2218 VRB03KT P6SM SKC
FM212000 29004KT P6SM SKC
FM220900 11004KT P6SM BKN250
AMD LTD TO CLD VIS AND WIND

Example: see airport list